sensor_id;sensor_type;location;lat;lon;timestamp;P1;durP1;ratioP1;P2;durP2;ratioP2
34405;SDS011;20658;45.630;8.886;2022-07-29T00:00:34;1.40;;;0.88;;
34405;SDS011;20658;45.630;8.886;2022-07-29T00:03:07;2.33;;;1.10;;
34405;SDS011;20658;45.630;8.886;2022-07-29T00:05:41;2.08;;;0.90;;
34405;SDS011;20658;45.630;8.886;2022-07-29T00:08:14;5.68;;;1.10;;
34405;SDS011;20658;45.630;8.886;2022-07-29T00:10:48;2.42;;;0.88;;
34405;SDS011;20658;45.630;8.886;2022-07-29T00:13:21;4.20;;;0.95;;
34405;SDS011;20658;45.630;8.886;2022-07-29T00:15:56;7.75;;;1.00;;
34405;SDS011;20658;45.630;8.886;2022-07-29T00:18:30;3.20;;;1.08;;
34405;SDS011;20658;45.630;8.886;2022-07-29T00:21:03;2.42;;;0.80;;
34405;SDS011;20658;45.630;8.886;2022-07-29T00:23:37;3.30;;;1.05;;
34405;SDS011;20658;45.630;8.886;2022-07-29T00:26:11;2.15;;;1.08;;
34405;SDS011;20658;45.630;8.886;2022-07-29T00:28:44;2.28;;;1.00;;
34405;SDS011;20658;45.630;8.886;2022-07-29T00:31:19;2.85;;;1.20;;
34405;SDS011;20658;45.630;8.886;2022-07-29T00:33:52;3.08;;;1.02;;
34405;SDS011;20658;45.630;8.886;2022-07-29T00:36:26;2.20;;;0.90;;
34405;SDS011;20658;45.630;8.886;2022-07-29T00:38:59;1.08;;;0.90;;
34405;SDS011;20658;45.630;8.886;2022-07-29T00:41:32;2.47;;;1.13;;
34405;SDS011;20658;45.630;8.886;2022-07-29T00:44:05;1.02;;;0.80;;
34405;SDS011;20658;45.630;8.886;2022-07-29T00:46:40;4.65;;;1.20;;
34405;SDS011;20658;45.630;8.886;2022-07-29T00:49:14;3.20;;;0.98;;
34405;SDS011;20658;45.630;8.886;2022-07-29T00:51:47;1.70;;;1.00;;
34405;SDS011;20658;45.630;8.886;2022-07-29T00:54:22;2.75;;;1.10;;
34405;SDS011;20658;45.630;8.886;2022-07-29T00:56:56;1.92;;;1.23;;
34405;SDS011;20658;45.630;8.886;2022-07-29T00:59:31;3.53;;;1.10;;
34405;SDS011;20658;45.630;8.886;2022-07-29T01:02:06;2.08;;;1.17;;
34405;SDS011;20658;45.630;8.886;2022-07-29T01:04:40;1.98;;;1.05;;
34405;SDS011;20658;45.630;8.886;2022-07-29T01:07:13;2.08;;;1.15;;
34405;SDS011;20658;45.630;8.886;2022-07-29T01:09:47;1.55;;;0.80;;
34405;SDS011;20658;45.630;8.886;2022-07-29T01:12:21;5.32;;;0.93;;
34405;SDS011;20658;45.630;8.886;2022-07-29T01:14:58;2.00;;;0.82;;
34405;SDS011;20658;45.630;8.886;2022-07-29T01:17:36;2.30;;;0.80;;
34405;SDS011;20658;45.630;8.886;2022-07-29T01:20:15;4.45;;;1.40;;
34405;SDS011;20658;45.630;8.886;2022-07-29T01:23:10;3.58;;;1.17;;
34405;SDS011;20658;45.630;8.886;2022-07-29T01:26:21;4.18;;;1.20;;
34405;SDS011;20658;45.630;8.886;2022-07-29T01:29:07;3.20;;;1.25;;
34405;SDS011;20658;45.630;8.886;2022-07-29T01:31:51;1.45;;;1.00;;
34405;SDS011;20658;45.630;8.886;2022-07-29T01:34:32;2.47;;;1.00;;
34405;SDS011;20658;45.630;8.886;2022-07-29T01:37:15;4.05;;;1.00;;
34405;SDS011;20658;45.630;8.886;2022-07-29T01:39:55;1.45;;;0.80;;
34405;SDS011;20658;45.630;8.886;2022-07-29T01:42:31;2.47;;;1.15;;
34405;SDS011;20658;45.630;8.886;2022-07-29T01:45:12;6.72;;;1.02;;
34405;SDS011;20658;45.630;8.886;2022-07-29T01:47:52;5.45;;;1.55;;
34405;SDS011;20658;45.630;8.886;2022-07-29T01:50:34;3.13;;;0.90;;
34405;SDS011;20658;45.630;8.886;2022-07-29T01:53:10;2.50;;;1.10;;
34405;SDS011;20658;45.630;8.886;2022-07-29T01:55:48;2.47;;;1.10;;
34405;SDS011;20658;45.630;8.886;2022-07-29T01:58:23;1.95;;;1.00;;
34405;SDS011;20658;45.630;8.886;2022-07-29T02:01:00;4.32;;;1.10;;
34405;SDS011;20658;45.630;8.886;2022-07-29T02:03:34;2.15;;;0.98;;
34405;SDS011;20658;45.630;8.886;2022-07-29T02:06:09;5.20;;;1.17;;
34405;SDS011;20658;45.630;8.886;2022-07-29T02:08:44;1.98;;;0.95;;
34405;SDS011;20658;45.630;8.886;2022-07-29T02:11:20;5.50;;;1.15;;
34405;SDS011;20658;45.630;8.886;2022-07-29T02:13:54;3.20;;;1.00;;
34405;SDS011;20658;45.630;8.886;2022-07-29T02:16:30;4.50;;;1.27;;
34405;SDS011;20658;45.630;8.886;2022-07-29T02:19:06;3.25;;;1.23;;
34405;SDS011;20658;45.630;8.886;2022-07-29T02:21:41;4.32;;;1.20;;
34405;SDS011;20658;45.630;8.886;2022-07-29T02:24:15;3.92;;;1.35;;
34405;SDS011;20658;45.630;8.886;2022-07-29T02:26:51;2.67;;;1.20;;
34405;SDS011;20658;45.630;8.886;2022-07-29T02:29:28;1.13;;;0.90;;
34405;SDS011;20658;45.630;8.886;2022-07-29T02:32:04;2.33;;;1.13;;
34405;SDS011;20658;45.630;8.886;2022-07-29T02:34:39;2.88;;;0.80;;
34405;SDS011;20658;45.630;8.886;2022-07-29T02:37:15;3.03;;;0.93;;
34405;SDS011;20658;45.630;8.886;2022-07-29T02:39:50;2.67;;;1.23;;
34405;SDS011;20658;45.630;8.886;2022-07-29T02:42:26;4.15;;;1.10;;
34405;SDS011;20658;45.630;8.886;2022-07-29T02:45:01;3.10;;;1.10;;
34405;SDS011;20658;45.630;8.886;2022-07-29T02:47:37;4.78;;;1.67;;
34405;SDS011;20658;45.630;8.886;2022-07-29T02:50:17;2.10;;;1.25;;
34405;SDS011;20658;45.630;8.886;2022-07-29T02:53:00;3.85;;;1.50;;
34405;SDS011;20658;45.630;8.886;2022-07-29T02:55:40;2.78;;;1.30;;
34405;SDS011;20658;45.630;8.886;2022-07-29T02:58:19;1.45;;;1.00;;
34405;SDS011;20658;45.630;8.886;2022-07-29T03:01:02;4.68;;;1.08;;
34405;SDS011;20658;45.630;8.886;2022-07-29T03:03:43;1.88;;;0.82;;
34405;SDS011;20658;45.630;8.886;2022-07-29T03:06:19;1.90;;;1.10;;
34405;SDS011;20658;45.630;8.886;2022-07-29T03:08:55;3.22;;;1.20;;
34405;SDS011;20658;45.630;8.886;2022-07-29T03:11:30;2.53;;;1.13;;
34405;SDS011;20658;45.630;8.886;2022-07-29T03:14:04;1.73;;;0.75;;
34405;SDS011;20658;45.630;8.886;2022-07-29T03:16:39;1.48;;;0.88;;
34405;SDS011;20658;45.630;8.886;2022-07-29T03:19:14;6.63;;;1.15;;
34405;SDS011;20658;45.630;8.886;2022-07-29T03:21:48;2.65;;;0.90;;
34405;SDS011;20658;45.630;8.886;2022-07-29T03:24:25;5.05;;;1.30;;
34405;SDS011;20658;45.630;8.886;2022-07-29T03:27:03;1.77;;;0.85;;
34405;SDS011;20658;45.630;8.886;2022-07-29T03:29:37;4.10;;;1.05;;
34405;SDS011;20658;45.630;8.886;2022-07-29T03:32:11;1.17;;;0.80;;
34405;SDS011;20658;45.630;8.886;2022-07-29T03:34:45;2.38;;;1.02;;
34405;SDS011;20658;45.630;8.886;2022-07-29T03:37:19;1.95;;;1.15;;
34405;SDS011;20658;45.630;8.886;2022-07-29T03:39:53;2.03;;;0.85;;
34405;SDS011;20658;45.630;8.886;2022-07-29T03:42:30;1.55;;;1.13;;
34405;SDS011;20658;45.630;8.886;2022-07-29T03:45:07;3.33;;;1.20;;
34405;SDS011;20658;45.630;8.886;2022-07-29T03:47:45;3.28;;;1.10;;
34405;SDS011;20658;45.630;8.886;2022-07-29T03:50:24;2.58;;;1.20;;
34405;SDS011;20658;45.630;8.886;2022-07-29T03:52:57;4.13;;;1.10;;
34405;SDS011;20658;45.630;8.886;2022-07-29T03:55:37;2.60;;;1.40;;
34405;SDS011;20658;45.630;8.886;2022-07-29T03:58:17;1.85;;;1.20;;
34405;SDS011;20658;45.630;8.886;2022-07-29T04:00:52;2.40;;;0.98;;
34405;SDS011;20658;45.630;8.886;2022-07-29T04:03:26;2.28;;;1.00;;
34405;SDS011;20658;45.630;8.886;2022-07-29T04:06:02;3.85;;;1.25;;
34405;SDS011;20658;45.630;8.886;2022-07-29T04:08:38;4.40;;;1.27;;
34405;SDS011;20658;45.630;8.886;2022-07-29T04:11:11;2.13;;;1.02;;
34405;SDS011;20658;45.630;8.886;2022-07-29T04:13:45;3.60;;;1.30;;
34405;SDS011;20658;45.630;8.886;2022-07-29T04:16:19;6.45;;;1.23;;
34405;SDS011;20658;45.630;8.886;2022-07-29T04:18:52;2.63;;;1.27;;
34405;SDS011;20658;45.630;8.886;2022-07-29T04:21:27;2.40;;;1.33;;
34405;SDS011;20658;45.630;8.886;2022-07-29T04:24:00;4.07;;;1.48;;
34405;SDS011;20658;45.630;8.886;2022-07-29T04:26:34;2.30;;;1.20;;
34405;SDS011;20658;45.630;8.886;2022-07-29T04:29:08;4.00;;;1.45;;
34405;SDS011;20658;45.630;8.886;2022-07-29T04:31:43;3.05;;;1.20;;
34405;SDS011;20658;45.630;8.886;2022-07-29T04:34:16;3.35;;;1.27;;
34405;SDS011;20658;45.630;8.886;2022-07-29T04:36:51;3.70;;;1.30;;
34405;SDS011;20658;45.630;8.886;2022-07-29T04:39:25;3.47;;;1.13;;
34405;SDS011;20658;45.630;8.886;2022-07-29T04:41:59;4.65;;;1.30;;
34405;SDS011;20658;45.630;8.886;2022-07-29T04:44:32;3.20;;;1.60;;
34405;SDS011;20658;45.630;8.886;2022-07-29T04:47:07;4.63;;;1.60;;
34405;SDS011;20658;45.630;8.886;2022-07-29T04:49:41;7.30;;;1.60;;
34405;SDS011;20658;45.630;8.886;2022-07-29T04:52:16;4.55;;;1.23;;
34405;SDS011;20658;45.630;8.886;2022-07-29T04:54:49;3.83;;;1.27;;
34405;SDS011;20658;45.630;8.886;2022-07-29T04:57:23;4.57;;;1.33;;
34405;SDS011;20658;45.630;8.886;2022-07-29T04:59:56;2.88;;;1.10;;
34405;SDS011;20658;45.630;8.886;2022-07-29T05:02:29;3.38;;;1.33;;
34405;SDS011;20658;45.630;8.886;2022-07-29T05:05:04;3.45;;;1.40;;
34405;SDS011;20658;45.630;8.886;2022-07-29T05:07:39;3.42;;;1.65;;
34405;SDS011;20658;45.630;8.886;2022-07-29T05:10:13;3.15;;;1.17;;
34405;SDS011;20658;45.630;8.886;2022-07-29T05:12:46;3.33;;;1.30;;
34405;SDS011;20658;45.630;8.886;2022-07-29T05:15:20;3.53;;;1.48;;
34405;SDS011;20658;45.630;8.886;2022-07-29T05:17:53;3.63;;;1.23;;
34405;SDS011;20658;45.630;8.886;2022-07-29T05:20:27;21.83;;;1.92;;
34405;SDS011;20658;45.630;8.886;2022-07-29T05:23:02;7.43;;;1.55;;
34405;SDS011;20658;45.630;8.886;2022-07-29T05:25:36;2.75;;;1.85;;
34405;SDS011;20658;45.630;8.886;2022-07-29T05:28:09;8.25;;;2.08;;
34405;SDS011;20658;45.630;8.886;2022-07-29T05:30:43;6.70;;;1.52;;
34405;SDS011;20658;45.630;8.886;2022-07-29T05:33:17;6.22;;;1.40;;
34405;SDS011;20658;45.630;8.886;2022-07-29T05:35:51;2.20;;;1.13;;
34405;SDS011;20658;45.630;8.886;2022-07-29T05:38:25;3.95;;;1.40;;
34405;SDS011;20658;45.630;8.886;2022-07-29T05:40:59;4.25;;;1.50;;
34405;SDS011;20658;45.630;8.886;2022-07-29T05:43:33;5.55;;;1.40;;
34405;SDS011;20658;45.630;8.886;2022-07-29T05:46:06;2.95;;;1.35;;
34405;SDS011;20658;45.630;8.886;2022-07-29T05:48:39;4.07;;;1.30;;
34405;SDS011;20658;45.630;8.886;2022-07-29T05:51:13;2.10;;;1.20;;
34405;SDS011;20658;45.630;8.886;2022-07-29T05:53:48;1.73;;;1.40;;
34405;SDS011;20658;45.630;8.886;2022-07-29T05:56:21;2.65;;;1.10;;
34405;SDS011;20658;45.630;8.886;2022-07-29T05:58:55;3.47;;;1.13;;
34405;SDS011;20658;45.630;8.886;2022-07-29T06:01:28;6.55;;;2.00;;
34405;SDS011;20658;45.630;8.886;2022-07-29T06:04:02;6.78;;;1.73;;
34405;SDS011;20658;45.630;8.886;2022-07-29T06:06:36;3.10;;;1.25;;
34405;SDS011;20658;45.630;8.886;2022-07-29T06:09:11;4.45;;;1.38;;
34405;SDS011;20658;45.630;8.886;2022-07-29T06:11:45;3.80;;;1.00;;
34405;SDS011;20658;45.630;8.886;2022-07-29T06:14:18;2.58;;;1.30;;
34405;SDS011;20658;45.630;8.886;2022-07-29T06:16:52;6.72;;;1.70;;
34405;SDS011;20658;45.630;8.886;2022-07-29T06:19:25;5.07;;;1.30;;
34405;SDS011;20658;45.630;8.886;2022-07-29T06:21:58;6.45;;;1.20;;
34405;SDS011;20658;45.630;8.886;2022-07-29T06:24:33;3.78;;;1.67;;
34405;SDS011;20658;45.630;8.886;2022-07-29T06:27:09;5.53;;;1.55;;
34405;SDS011;20658;45.630;8.886;2022-07-29T06:29:43;2.95;;;1.30;;
34405;SDS011;20658;45.630;8.886;2022-07-29T06:32:16;3.38;;;1.52;;
34405;SDS011;20658;45.630;8.886;2022-07-29T06:34:50;4.88;;;1.70;;
34405;SDS011;20658;45.630;8.886;2022-07-29T06:37:24;8.20;;;1.98;;
34405;SDS011;20658;45.630;8.886;2022-07-29T06:39:58;7.55;;;1.50;;
34405;SDS011;20658;45.630;8.886;2022-07-29T06:42:46;6.40;;;1.60;;
34405;SDS011;20658;45.630;8.886;2022-07-29T06:45:19;8.15;;;2.00;;
34405;SDS011;20658;45.630;8.886;2022-07-29T06:47:53;6.85;;;1.40;;
34405;SDS011;20658;45.630;8.886;2022-07-29T06:50:26;3.97;;;1.48;;
34405;SDS011;20658;45.630;8.886;2022-07-29T06:53:00;5.10;;;1.60;;
34405;SDS011;20658;45.630;8.886;2022-07-29T06:55:34;7.22;;;2.05;;
34405;SDS011;20658;45.630;8.886;2022-07-29T06:58:08;3.85;;;1.40;;
34405;SDS011;20658;45.630;8.886;2022-07-29T07:00:48;6.25;;;1.42;;
34405;SDS011;20658;45.630;8.886;2022-07-29T07:03:22;7.07;;;1.58;;
34405;SDS011;20658;45.630;8.886;2022-07-29T07:05:56;4.72;;;1.50;;
34405;SDS011;20658;45.630;8.886;2022-07-29T07:08:30;3.72;;;1.40;;
34405;SDS011;20658;45.630;8.886;2022-07-29T07:11:04;8.75;;;2.08;;
34405;SDS011;20658;45.630;8.886;2022-07-29T07:13:38;3.25;;;1.20;;
34405;SDS011;20658;45.630;8.886;2022-07-29T07:16:12;5.85;;;1.98;;
34405;SDS011;20658;45.630;8.886;2022-07-29T07:18:45;2.90;;;1.35;;
34405;SDS011;20658;45.630;8.886;2022-07-29T07:21:18;4.90;;;1.45;;
34405;SDS011;20658;45.630;8.886;2022-07-29T07:23:52;10.40;;;1.77;;
34405;SDS011;20658;45.630;8.886;2022-07-29T07:26:27;2.80;;;1.73;;
34405;SDS011;20658;45.630;8.886;2022-07-29T07:29:01;6.25;;;1.90;;
34405;SDS011;20658;45.630;8.886;2022-07-29T07:31:35;2.22;;;1.40;;
34405;SDS011;20658;45.630;8.886;2022-07-29T07:34:09;4.50;;;1.70;;
34405;SDS011;20658;45.630;8.886;2022-07-29T07:36:43;3.67;;;1.60;;
34405;SDS011;20658;45.630;8.886;2022-07-29T07:39:16;10.40;;;2.17;;
34405;SDS011;20658;45.630;8.886;2022-07-29T07:41:51;4.60;;;1.63;;
34405;SDS011;20658;45.630;8.886;2022-07-29T07:44:25;4.28;;;1.60;;
34405;SDS011;20658;45.630;8.886;2022-07-29T07:46:59;5.82;;;1.50;;
34405;SDS011;20658;45.630;8.886;2022-07-29T07:49:33;5.30;;;1.70;;
34405;SDS011;20658;45.630;8.886;2022-07-29T07:52:07;3.58;;;1.80;;
34405;SDS011;20658;45.630;8.886;2022-07-29T07:54:40;4.65;;;1.77;;
34405;SDS011;20658;45.630;8.886;2022-07-29T07:57:16;3.78;;;1.90;;
34405;SDS011;20658;45.630;8.886;2022-07-29T07:59:49;3.97;;;1.92;;
34405;SDS011;20658;45.630;8.886;2022-07-29T08:02:22;4.13;;;1.95;;
34405;SDS011;20658;45.630;8.886;2022-07-29T08:04:56;9.18;;;1.95;;
34405;SDS011;20658;45.630;8.886;2022-07-29T08:07:30;5.97;;;3.17;;
34405;SDS011;20658;45.630;8.886;2022-07-29T08:10:04;7.30;;;1.77;;
34405;SDS011;20658;45.630;8.886;2022-07-29T08:12:40;2.47;;;1.30;;
34405;SDS011;20658;45.630;8.886;2022-07-29T08:15:13;5.38;;;2.35;;
34405;SDS011;20658;45.630;8.886;2022-07-29T08:17:47;4.63;;;2.00;;
34405;SDS011;20658;45.630;8.886;2022-07-29T08:20:20;4.63;;;2.20;;
34405;SDS011;20658;45.630;8.886;2022-07-29T08:22:53;8.15;;;2.05;;
34405;SDS011;20658;45.630;8.886;2022-07-29T08:25:27;4.38;;;1.98;;
34405;SDS011;20658;45.630;8.886;2022-07-29T08:28:02;7.57;;;3.35;;
34405;SDS011;20658;45.630;8.886;2022-07-29T08:30:36;3.85;;;2.03;;
34405;SDS011;20658;45.630;8.886;2022-07-29T08:33:09;4.90;;;1.65;;
34405;SDS011;20658;45.630;8.886;2022-07-29T08:35:43;3.85;;;1.60;;
34405;SDS011;20658;45.630;8.886;2022-07-29T08:38:16;2.88;;;1.52;;
34405;SDS011;20658;45.630;8.886;2022-07-29T08:40:50;4.10;;;1.67;;
34405;SDS011;20658;45.630;8.886;2022-07-29T08:43:25;4.75;;;1.60;;
34405;SDS011;20658;45.630;8.886;2022-07-29T08:45:59;4.43;;;1.67;;
34405;SDS011;20658;45.630;8.886;2022-07-29T08:48:33;4.15;;;1.77;;
34405;SDS011;20658;45.630;8.886;2022-07-29T08:51:07;5.65;;;2.05;;
34405;SDS011;20658;45.630;8.886;2022-07-29T08:53:41;4.05;;;1.60;;
34405;SDS011;20658;45.630;8.886;2022-07-29T08:56:17;6.07;;;1.80;;
34405;SDS011;20658;45.630;8.886;2022-07-29T08:58:53;4.90;;;1.60;;
34405;SDS011;20658;45.630;8.886;2022-07-29T09:01:27;4.00;;;1.90;;
34405;SDS011;20658;45.630;8.886;2022-07-29T09:04:05;3.70;;;1.60;;
34405;SDS011;20658;45.630;8.886;2022-07-29T09:06:44;3.67;;;1.80;;
34405;SDS011;20658;45.630;8.886;2022-07-29T09:09:20;4.32;;;2.15;;
34405;SDS011;20658;45.630;8.886;2022-07-29T09:11:54;5.40;;;1.77;;
34405;SDS011;20658;45.630;8.886;2022-07-29T09:14:29;2.85;;;1.65;;
34405;SDS011;20658;45.630;8.886;2022-07-29T09:17:02;3.35;;;1.77;;
34405;SDS011;20658;45.630;8.886;2022-07-29T09:19:36;3.20;;;1.67;;
34405;SDS011;20658;45.630;8.886;2022-07-29T09:22:10;6.30;;;1.65;;
34405;SDS011;20658;45.630;8.886;2022-07-29T09:24:44;4.47;;;1.50;;
34405;SDS011;20658;45.630;8.886;2022-07-29T09:27:19;3.15;;;1.70;;
34405;SDS011;20658;45.630;8.886;2022-07-29T09:29:59;3.70;;;1.88;;
34405;SDS011;20658;45.630;8.886;2022-07-29T09:32:35;6.95;;;1.90;;
34405;SDS011;20658;45.630;8.886;2022-07-29T09:35:28;3.30;;;2.00;;
34405;SDS011;20658;45.630;8.886;2022-07-29T09:38:12;4.32;;;2.00;;
34405;SDS011;20658;45.630;8.886;2022-07-29T09:40:55;7.28;;;3.28;;
34405;SDS011;20658;45.630;8.886;2022-07-29T09:43:29;11.27;;;6.43;;
34405;SDS011;20658;45.630;8.886;2022-07-29T09:46:10;3.53;;;1.60;;
34405;SDS011;20658;45.630;8.886;2022-07-29T09:51:18;2.88;;;1.58;;
34405;SDS011;20658;45.630;8.886;2022-07-29T09:53:53;4.68;;;1.67;;
34405;SDS011;20658;45.630;8.886;2022-07-29T09:56:37;3.83;;;1.70;;
34405;SDS011;20658;45.630;8.886;2022-07-29T09:59:12;4.47;;;1.83;;
34405;SDS011;20658;45.630;8.886;2022-07-29T10:01:46;3.95;;;1.95;;
34405;SDS011;20658;45.630;8.886;2022-07-29T10:04:21;3.80;;;2.05;;
34405;SDS011;20658;45.630;8.886;2022-07-29T10:06:55;3.72;;;1.80;;
34405;SDS011;20658;45.630;8.886;2022-07-29T10:09:30;4.40;;;2.20;;
34405;SDS011;20658;45.630;8.886;2022-07-29T10:12:05;11.15;;;2.05;;
34405;SDS011;20658;45.630;8.886;2022-07-29T10:14:42;3.67;;;1.83;;
34405;SDS011;20658;45.630;8.886;2022-07-29T10:17:17;8.38;;;2.05;;
34405;SDS011;20658;45.630;8.886;2022-07-29T10:19:48;3.10;;;1.83;;
34405;SDS011;20658;45.630;8.886;2022-07-29T10:22:22;6.65;;;2.30;;
34405;SDS011;20658;45.630;8.886;2022-07-29T10:24:56;7.05;;;2.22;;
34405;SDS011;20658;45.630;8.886;2022-07-29T10:27:29;8.05;;;2.60;;
34405;SDS011;20658;45.630;8.886;2022-07-29T10:30:03;5.35;;;2.28;;
34405;SDS011;20658;45.630;8.886;2022-07-29T10:32:42;6.93;;;2.38;;
34405;SDS011;20658;45.630;8.886;2022-07-29T10:35:59;4.45;;;2.28;;
34405;SDS011;20658;45.630;8.886;2022-07-29T10:38:45;7.05;;;2.53;;
34405;SDS011;20658;45.630;8.886;2022-07-29T10:41:32;4.93;;;2.05;;
34405;SDS011;20658;45.630;8.886;2022-07-29T10:44:20;3.58;;;2.03;;
34405;SDS011;20658;45.630;8.886;2022-07-29T10:46:56;5.65;;;2.47;;
34405;SDS011;20658;45.630;8.886;2022-07-29T10:49:31;3.25;;;2.20;;
34405;SDS011;20658;45.630;8.886;2022-07-29T10:52:04;4.93;;;2.38;;
34405;SDS011;20658;45.630;8.886;2022-07-29T10:54:47;6.57;;;2.40;;
34405;SDS011;20658;45.630;8.886;2022-07-29T10:57:24;3.38;;;1.85;;
34405;SDS011;20658;45.630;8.886;2022-07-29T11:03:02;5.50;;;2.25;;
34405;SDS011;20658;45.630;8.886;2022-07-29T11:05:56;6.43;;;2.40;;
34405;SDS011;20658;45.630;8.886;2022-07-29T11:08:30;7.15;;;2.72;;
34405;SDS011;20658;45.630;8.886;2022-07-29T11:11:30;4.18;;;1.90;;
34405;SDS011;20658;45.630;8.886;2022-07-29T11:14:04;3.78;;;2.60;;
34405;SDS011;20658;45.630;8.886;2022-07-29T11:19:38;4.57;;;2.40;;
34405;SDS011;20658;45.630;8.886;2022-07-29T11:22:31;6.38;;;3.00;;
34405;SDS011;20658;45.630;8.886;2022-07-29T11:25:15;5.05;;;2.63;;
34405;SDS011;20658;45.630;8.886;2022-07-29T11:27:50;4.85;;;2.85;;
34405;SDS011;20658;45.630;8.886;2022-07-29T11:33:28;7.22;;;3.30;;
34405;SDS011;20658;45.630;8.886;2022-07-29T11:38:44;7.38;;;3.20;;
34405;SDS011;20658;45.630;8.886;2022-07-29T11:41:21;8.57;;;2.90;;
34405;SDS011;20658;45.630;8.886;2022-07-29T11:43:56;11.18;;;3.30;;
34405;SDS011;20658;45.630;8.886;2022-07-29T11:46:47;5.32;;;2.92;;
34405;SDS011;20658;45.630;8.886;2022-07-29T11:49:23;7.30;;;3.47;;
34405;SDS011;20658;45.630;8.886;2022-07-29T11:51:59;6.38;;;3.20;;
34405;SDS011;20658;45.630;8.886;2022-07-29T11:54:35;6.18;;;3.53;;
34405;SDS011;20658;45.630;8.886;2022-07-29T11:57:11;6.20;;;3.30;;
34405;SDS011;20658;45.630;8.886;2022-07-29T11:59:46;5.20;;;3.40;;
34405;SDS011;20658;45.630;8.886;2022-07-29T12:02:20;4.30;;;2.88;;
34405;SDS011;20658;45.630;8.886;2022-07-29T12:04:54;5.82;;;2.67;;
34405;SDS011;20658;45.630;8.886;2022-07-29T12:07:31;6.85;;;3.33;;
34405;SDS011;20658;45.630;8.886;2022-07-29T12:10:07;4.82;;;3.38;;
34405;SDS011;20658;45.630;8.886;2022-07-29T12:12:41;6.03;;;4.13;;
34405;SDS011;20658;45.630;8.886;2022-07-29T12:15:15;5.85;;;3.70;;
34405;SDS011;20658;45.630;8.886;2022-07-29T12:17:51;8.93;;;3.67;;
34405;SDS011;20658;45.630;8.886;2022-07-29T12:20:26;4.82;;;3.28;;
34405;SDS011;20658;45.630;8.886;2022-07-29T12:23:04;5.88;;;3.30;;
34405;SDS011;20658;45.630;8.886;2022-07-29T12:25:41;6.05;;;2.80;;
34405;SDS011;20658;45.630;8.886;2022-07-29T12:28:16;6.57;;;3.35;;
34405;SDS011;20658;45.630;8.886;2022-07-29T12:30:52;5.30;;;4.03;;
34405;SDS011;20658;45.630;8.886;2022-07-29T12:33:27;6.20;;;3.83;;
34405;SDS011;20658;45.630;8.886;2022-07-29T12:36:01;7.15;;;3.78;;
34405;SDS011;20658;45.630;8.886;2022-07-29T12:38:36;6.97;;;3.60;;
34405;SDS011;20658;45.630;8.886;2022-07-29T12:41:11;7.65;;;4.00;;
34405;SDS011;20658;45.630;8.886;2022-07-29T12:43:52;6.97;;;3.60;;
34405;SDS011;20658;45.630;8.886;2022-07-29T12:46:27;7.70;;;3.65;;
34405;SDS011;20658;45.630;8.886;2022-07-29T12:49:00;5.75;;;3.70;;
34405;SDS011;20658;45.630;8.886;2022-07-29T12:51:35;8.15;;;3.40;;
34405;SDS011;20658;45.630;8.886;2022-07-29T12:54:10;6.68;;;3.83;;
34405;SDS011;20658;45.630;8.886;2022-07-29T12:56:57;8.05;;;3.78;;
34405;SDS011;20658;45.630;8.886;2022-07-29T12:59:31;5.90;;;3.72;;
34405;SDS011;20658;45.630;8.886;2022-07-29T13:02:05;6.18;;;3.90;;
34405;SDS011;20658;45.630;8.886;2022-07-29T13:04:39;7.53;;;4.00;;
34405;SDS011;20658;45.630;8.886;2022-07-29T13:07:12;11.70;;;4.20;;
34405;SDS011;20658;45.630;8.886;2022-07-29T13:09:46;6.20;;;3.88;;
34405;SDS011;20658;45.630;8.886;2022-07-29T13:12:21;7.30;;;3.80;;
34405;SDS011;20658;45.630;8.886;2022-07-29T13:14:54;7.55;;;4.30;;
34405;SDS011;20658;45.630;8.886;2022-07-29T13:17:28;5.85;;;4.03;;
34405;SDS011;20658;45.630;8.886;2022-07-29T13:20:13;6.85;;;4.18;;
34405;SDS011;20658;45.630;8.886;2022-07-29T13:22:47;7.22;;;4.20;;
34405;SDS011;20658;45.630;8.886;2022-07-29T13:25:24;8.90;;;4.97;;
34405;SDS011;20658;45.630;8.886;2022-07-29T13:28:01;8.95;;;3.88;;
34405;SDS011;20658;45.630;8.886;2022-07-29T13:30:34;9.25;;;3.88;;
34405;SDS011;20658;45.630;8.886;2022-07-29T13:33:08;7.43;;;3.38;;
34405;SDS011;20658;45.630;8.886;2022-07-29T13:35:42;7.05;;;3.55;;
34405;SDS011;20658;45.630;8.886;2022-07-29T13:38:15;9.82;;;4.32;;
34405;SDS011;20658;45.630;8.886;2022-07-29T13:40:49;7.13;;;3.72;;
34405;SDS011;20658;45.630;8.886;2022-07-29T13:43:24;6.43;;;3.40;;
34405;SDS011;20658;45.630;8.886;2022-07-29T13:45:57;8.25;;;3.92;;
34405;SDS011;20658;45.630;8.886;2022-07-29T13:48:30;5.25;;;3.80;;
34405;SDS011;20658;45.630;8.886;2022-07-29T13:51:04;8.55;;;3.97;;
34405;SDS011;20658;45.630;8.886;2022-07-29T13:53:32;5.78;;;3.80;;
34405;SDS011;20658;45.630;8.886;2022-07-29T13:56:06;8.10;;;4.38;;
34405;SDS011;20658;45.630;8.886;2022-07-29T13:58:41;10.32;;;4.10;;
34405;SDS011;20658;45.630;8.886;2022-07-29T14:01:14;7.32;;;4.30;;
34405;SDS011;20658;45.630;8.886;2022-07-29T14:03:48;8.38;;;4.00;;
34405;SDS011;20658;45.630;8.886;2022-07-29T14:06:21;9.38;;;3.63;;
34405;SDS011;20658;45.630;8.886;2022-07-29T14:08:55;7.65;;;3.80;;
34405;SDS011;20658;45.630;8.886;2022-07-29T14:11:28;7.00;;;3.67;;
34405;SDS011;20658;45.630;8.886;2022-07-29T14:14:03;8.05;;;3.30;;
34405;SDS011;20658;45.630;8.886;2022-07-29T14:16:37;6.28;;;2.85;;
34405;SDS011;20658;45.630;8.886;2022-07-29T14:19:10;6.47;;;2.42;;
34405;SDS011;20658;45.630;8.886;2022-07-29T14:21:44;6.78;;;2.53;;
34405;SDS011;20658;45.630;8.886;2022-07-29T14:24:17;3.28;;;2.75;;
34405;SDS011;20658;45.630;8.886;2022-07-29T14:26:51;5.93;;;2.85;;
34405;SDS011;20658;45.630;8.886;2022-07-29T14:29:26;10.75;;;2.90;;
34405;SDS011;20658;45.630;8.886;2022-07-29T14:31:59;4.80;;;3.00;;
34405;SDS011;20658;45.630;8.886;2022-07-29T14:34:33;7.18;;;3.42;;
34405;SDS011;20658;45.630;8.886;2022-07-29T14:37:07;4.70;;;3.08;;
34405;SDS011;20658;45.630;8.886;2022-07-29T14:39:41;9.23;;;3.13;;
34405;SDS011;20658;45.630;8.886;2022-07-29T14:42:14;3.83;;;2.53;;
34405;SDS011;20658;45.630;8.886;2022-07-29T14:44:49;4.35;;;2.90;;
34405;SDS011;20658;45.630;8.886;2022-07-29T14:47:23;5.32;;;2.75;;
34405;SDS011;20658;45.630;8.886;2022-07-29T14:49:56;7.18;;;2.72;;
34405;SDS011;20658;45.630;8.886;2022-07-29T14:52:30;4.30;;;2.80;;
34405;SDS011;20658;45.630;8.886;2022-07-29T14:55:04;6.53;;;2.78;;
34405;SDS011;20658;45.630;8.886;2022-07-29T14:57:38;4.03;;;2.78;;
34405;SDS011;20658;45.630;8.886;2022-07-29T15:00:13;5.57;;;2.50;;
34405;SDS011;20658;45.630;8.886;2022-07-29T15:02:47;5.75;;;2.70;;
34405;SDS011;20658;45.630;8.886;2022-07-29T15:05:20;5.80;;;2.90;;
34405;SDS011;20658;45.630;8.886;2022-07-29T15:07:54;3.97;;;2.90;;
34405;SDS011;20658;45.630;8.886;2022-07-29T15:10:28;6.10;;;2.45;;
34405;SDS011;20658;45.630;8.886;2022-07-29T15:13:01;7.60;;;3.25;;
34405;SDS011;20658;45.630;8.886;2022-07-29T15:15:36;5.72;;;2.70;;
34405;SDS011;20658;45.630;8.886;2022-07-29T15:18:10;7.03;;;2.75;;
34405;SDS011;20658;45.630;8.886;2022-07-29T15:20:44;8.73;;;2.95;;
34405;SDS011;20658;45.630;8.886;2022-07-29T15:23:17;8.25;;;3.03;;
34405;SDS011;20658;45.630;8.886;2022-07-29T15:25:51;11.05;;;3.05;;
34405;SDS011;20658;45.630;8.886;2022-07-29T15:28:24;4.18;;;2.53;;
34405;SDS011;20658;45.630;8.886;2022-07-29T15:30:59;5.65;;;3.33;;
34405;SDS011;20658;45.630;8.886;2022-07-29T15:33:33;5.97;;;3.05;;
34405;SDS011;20658;45.630;8.886;2022-07-29T15:36:02;7.15;;;2.92;;
34405;SDS011;20658;45.630;8.886;2022-07-29T15:38:36;4.38;;;2.83;;
34405;SDS011;20658;45.630;8.886;2022-07-29T15:41:13;6.85;;;3.25;;
34405;SDS011;20658;45.630;8.886;2022-07-29T15:43:46;7.35;;;3.13;;
34405;SDS011;20658;45.630;8.886;2022-07-29T15:46:21;6.50;;;3.80;;
34405;SDS011;20658;45.630;8.886;2022-07-29T15:49:12;4.43;;;2.92;;
34405;SDS011;20658;45.630;8.886;2022-07-29T15:51:46;5.43;;;3.40;;